9  °C
Temperature
8  °C
  Dewpoint
94  %
   Humidity
Temp | Dewpoint | Humidity
32  km/h
Wind Speed
20  mph
Wind Speed
17  kts
Wind Speed
70°
East North
East

Wind Speed
Clear
Conditions
Pressure 1014.92 (hPa) - 29.97 (in)
Visibility 6.2 (mi) - 10.0 (km)

Current Conditions
LHBP
Location 6km (3.2mi)
Metar :LHBP 230130Z 07017KT CAVOK 09/08 Q1015 NOSIG
April 23rd Tue 02:30 am

Airport
   Metar Aviation API Data Provided by https://www.checkwx.com
   CSS/SVG/PHP scripts by weather34.com © 2015 - 2019